Time,TemperatureF,DewpointF,PressureIn,WindDirection,WindDirectionDegrees,WindSpeedMPH,WindSpeedGustMPH,Humidity,HourlyPrecipIn,Conditions,Clouds,dailyrainin,SoftwareType,DateUTC
2013-03-08 00:00:00,44.6,39.4,30.14,WNW,291,0.0,0.0,82,0.00,,,0.00,Wunderground v.1.13,2013-03-08 06:00:00,
2013-03-08 00:06:00,44.6,39.8,30.14,WNW,291,0.0,0.0,83,0.00,,,0.00,Wunderground v.1.13,2013-03-08 06:06:00,
2013-03-08 00:12:00,44.5,39.7,30.14,WNW,291,0.0,0.0,83,0.00,,,0.00,Wunderground v.1.13,2013-03-08 06:12:00,
2013-03-08 00:17:00,44.3,39.5,30.14,WNW,291,0.0,0.0,83,0.00,,,0.00,Wunderground v.1.13,2013-03-08 06:17:00,
2013-03-08 00:23:00,44.3,39.5,30.15,North,0,0.0,0.0,83,0.00,,,0.00,Wunderground v.1.13,2013-03-08 06:23:00,
2013-03-08 00:29:00,44.5,40.0,30.15,North,0,0.0,0.0,84,0.00,,,0.00,Wunderground v.1.13,2013-03-08 06:29:00,
2013-03-08 00:35:00,44.2,39.4,30.15,North,0,0.0,0.0,83,0.00,,,0.00,Wunderground v.1.13,2013-03-08 06:35:00,
2013-03-08 00:41:00,44.1,39.6,30.15,North,0,0.0,0.0,84,0.00,,,0.00,Wunderground v.1.13,2013-03-08 06:41:00,
2013-03-08 00:47:00,44.1,39.6,30.15,North,0,0.0,0.0,84,0.00,,,0.00,Wunderground v.1.13,2013-03-08 06:47:00,
2013-03-08 00:52:00,43.9,39.4,30.15,North,0,0.0,0.0,84,0.00,,,0.00,Wunderground v.1.13,2013-03-08 06:52:00,
2013-03-08 00:58:00,43.8,39.3,30.15,North,0,0.0,0.0,84,0.00,,,0.00,Wunderground v.1.13,2013-03-08 06:58:00,
2013-03-08 01:03:00,43.5,39.0,30.15,North,0,0.0,0.0,84,0.00,,,0.00,Wunderground v.1.13,2013-03-08 07:03:00,
2013-03-08 01:09:00,43.3,38.8,30.15,North,0,0.0,0.0,84,0.00,,,0.00,Wunderground v.1.13,2013-03-08 07:09:00,
2013-03-08 01:14:00,43.2,38.7,30.15,North,0,0.0,0.0,84,0.00,,,0.00,Wunderground v.1.13,2013-03-08 07:14:00,
2013-03-08 01:20:00,43.1,38.6,30.15,North,0,0.0,0.0,84,0.00,,,0.00,Wunderground v.1.13,2013-03-08 07:20:00,
2013-03-08 01:26:00,42.8,38.3,30.15,North,0,0.0,0.0,84,0.00,,,0.00,Wunderground v.1.13,2013-03-08 07:26:00,
2013-03-08 01:31:00,42.8,38.6,30.15,North,0,0.0,0.0,85,0.00,,,0.00,Wunderground v.1.13,2013-03-08 07:31:00,
2013-03-08 01:37:00,42.6,38.4,30.15,North,0,0.0,0.0,85,0.00,,,0.00,Wunderground v.1.13,2013-03-08 07:37:00,
2013-03-08 01:43:00,42.6,38.4,30.15,North,0,0.0,0.0,85,0.00,,,0.00,Wunderground v.1.13,2013-03-08 07:43:00,
2013-03-08 01:48:00,42.8,38.6,30.15,North,0,0.0,0.0,85,0.00,,,0.00,Wunderground v.1.13,2013-03-08 07:48:00,
2013-03-08 01:54:00,42.8,38.6,30.15,North,0,0.0,0.0,85,0.00,,,0.00,Wunderground v.1.13,2013-03-08 07:54:00,
2013-03-08 01:59:00,43.1,38.9,30.15,North,0,0.0,0.0,85,0.00,,,0.00,Wunderground v.1.13,2013-03-08 07:59:00,
2013-03-08 02:05:00,43.1,38.9,30.15,North,0,0.0,0.0,85,0.00,,,0.00,Wunderground v.1.13,2013-03-08 08:05:00,
2013-03-08 02:11:00,43.1,38.9,30.14,North,0,0.0,0.0,85,0.00,,,0.00,Wunderground v.1.13,2013-03-08 08:11:00,
2013-03-08 02:16:00,43.2,39.3,30.14,North,0,0.0,0.0,86,0.00,,,0.00,Wunderground v.1.13,2013-03-08 08:16:00,
2013-03-08 02:22:00,43.3,39.1,30.14,North,0,0.0,0.0,85,0.00,,,0.00,Wunderground v.1.13,2013-03-08 08:22:00,
2013-03-08 02:27:00,43.1,38.9,30.14,North,0,0.0,0.0,85,0.00,,,0.00,Wunderground v.1.13,2013-03-08 08:27:00,
2013-03-08 02:33:00,42.9,38.7,30.14,North,0,0.0,0.0,85,0.00,,,0.00,Wunderground v.1.13,2013-03-08 08:33:00,
2013-03-08 02:39:00,42.6,38.4,30.13,North,0,0.0,0.0,85,0.00,,,0.00,Wunderground v.1.13,2013-03-08 08:39:00,
2013-03-08 02:44:00,42.6,38.7,30.13,North,0,0.0,0.0,86,0.00,,,0.00,Wunderground v.1.13,2013-03-08 08:44:00,
2013-03-08 02:50:00,42.6,38.7,30.13,North,0,0.0,0.0,86,0.00,,,0.00,Wunderground v.1.13,2013-03-08 08:50:00,
2013-03-08 02:55:00,42.5,38.6,30.13,North,0,0.0,0.0,86,0.00,,,0.00,Wunderground v.1.13,2013-03-08 08:55:00,
2013-03-08 03:01:00,42.5,38.6,30.13,North,0,0.0,0.0,86,0.00,,,0.00,Wunderground v.1.13,2013-03-08 09:01:00,
2013-03-08 03:07:00,42.5,38.6,30.13,North,0,0.0,0.0,86,0.00,,,0.00,Wunderground v.1.13,2013-03-08 09:07:00,
2013-03-08 03:12:00,42.5,38.6,30.13,North,0,0.0,0.0,86,0.00,,,0.00,Wunderground v.1.13,2013-03-08 09:12:00,
2013-03-08 03:18:00,42.5,38.6,30.13,North,0,0.0,0.0,86,0.00,,,0.00,Wunderground v.1.13,2013-03-08 09:18:00,
2013-03-08 03:24:00,42.3,38.4,30.14,North,0,0.0,0.0,86,0.00,,,0.00,Wunderground v.1.13,2013-03-08 09:24:00,
2013-03-08 03:29:00,42.2,38.3,30.14,North,0,0.0,0.0,86,0.00,,,0.00,Wunderground v.1.13,2013-03-08 09:29:00,
2013-03-08 03:35:00,42.1,38.2,30.14,North,0,0.0,0.0,86,0.00,,,0.00,Wunderground v.1.13,2013-03-08 09:35:00,
2013-03-08 03:40:00,41.8,37.9,30.14,North,0,0.0,0.0,86,0.00,,,0.00,Wunderground v.1.13,2013-03-08 09:40:00,
2013-03-08 03:46:00,41.2,37.3,30.14,North,0,0.0,0.0,86,0.00,,,0.00,Wunderground v.1.13,2013-03-08 09:46:00,
2013-03-08 03:52:00,41.1,37.2,30.14,North,0,0.0,0.0,86,0.00,,,0.00,Wunderground v.1.13,2013-03-08 09:52:00,
2013-03-08 03:57:00,40.9,37.0,30.14,North,0,0.0,0.0,86,0.00,,,0.00,Wunderground v.1.13,2013-03-08 09:57:00,
2013-03-08 04:03:00,40.9,37.3,30.14,North,0,0.0,0.0,87,0.00,,,0.00,Wunderground v.1.13,2013-03-08 10:03:00,
2013-03-08 04:09:00,40.9,37.3,30.14,North,0,0.0,0.0,87,0.00,,,0.00,Wunderground v.1.13,2013-03-08 10:09:00,
2013-03-08 04:14:00,41.1,37.5,30.14,North,0,0.0,0.0,87,0.00,,,0.00,Wunderground v.1.13,2013-03-08 10:14:00,
2013-03-08 04:20:00,40.9,37.3,30.14,North,0,0.0,0.0,87,0.00,,,0.00,Wunderground v.1.13,2013-03-08 10:20:00,
2013-03-08 04:25:00,40.9,37.3,30.14,North,0,0.0,0.0,87,0.00,,,0.00,Wunderground v.1.13,2013-03-08 10:25:00,
2013-03-08 04:31:00,40.8,37.2,30.14,North,0,0.0,0.0,87,0.00,,,0.00,Wunderground v.1.13,2013-03-08 10:31:00,
2013-03-08 04:37:00,40.6,37.0,30.15,North,0,0.0,0.0,87,0.00,,,0.00,Wunderground v.1.13,2013-03-08 10:37:00,
2013-03-08 04:43:00,40.6,37.0,30.15,North,0,0.0,0.0,87,0.00,,,0.00,Wunderground v.1.13,2013-03-08 10:43:00,
2013-03-08 04:49:00,40.5,36.9,30.15,North,0,0.0,0.0,87,0.00,,,0.00,Wunderground v.1.13,2013-03-08 10:49:00,
2013-03-08 04:54:00,40.5,36.9,30.15,North,0,0.0,0.0,87,0.00,,,0.00,Wunderground v.1.13,2013-03-08 10:54:00,
2013-03-08 05:00:00,40.5,36.9,30.15,North,0,0.0,0.0,87,0.00,,,0.00,Wunderground v.1.13,2013-03-08 11:00:00,
2013-03-08 05:05:00,40.5,37.2,30.15,North,0,0.0,0.0,88,0.00,,,0.00,Wunderground v.1.13,2013-03-08 11:05:00,
2013-03-08 05:11:00,40.5,37.2,30.15,North,0,0.0,0.0,88,0.00,,,0.00,Wunderground v.1.13,2013-03-08 11:11:00,
2013-03-08 05:17:00,40.5,37.2,30.15,North,0,0.0,0.0,88,0.00,,,0.00,Wunderground v.1.13,2013-03-08 11:17:00,
2013-03-08 05:22:00,40.5,37.2,30.15,North,0,0.0,0.0,88,0.00,,,0.00,Wunderground v.1.13,2013-03-08 11:22:00,
2013-03-08 05:28:00,40.6,37.3,30.15,North,0,0.0,0.0,88,0.00,,,0.00,Wunderground v.1.13,2013-03-08 11:28:00,
2013-03-08 05:34:00,40.8,37.5,30.15,North,0,0.0,0.0,88,0.00,,,0.00,Wunderground v.1.13,2013-03-08 11:34:00,
2013-03-08 05:39:00,40.8,37.5,30.16,North,0,0.0,0.0,88,0.00,,,0.00,Wunderground v.1.13,2013-03-08 11:39:00,
2013-03-08 05:45:00,40.8,37.5,30.16,North,0,0.0,0.0,88,0.00,,,0.00,Wunderground v.1.13,2013-03-08 11:45:00,
2013-03-08 05:51:00,40.6,37.3,30.16,North,0,0.0,0.0,88,0.00,,,0.00,Wunderground v.1.13,2013-03-08 11:51:00,
2013-03-08 05:56:00,40.6,37.3,30.16,North,0,0.0,0.0,88,0.00,,,0.00,Wunderground v.1.13,2013-03-08 11:56:00,
2013-03-08 06:02:00,40.8,37.5,30.16,North,0,0.0,0.0,88,0.00,,,0.00,Wunderground v.1.13,2013-03-08 12:02:00,
2013-03-08 06:07:00,40.9,37.6,30.16,North,0,0.0,0.0,88,0.00,,,0.00,Wunderground v.1.13,2013-03-08 12:07:00,
2013-03-08 06:13:00,41.1,37.8,30.16,North,0,0.0,0.0,88,0.00,,,0.00,Wunderground v.1.13,2013-03-08 12:13:00,
2013-03-08 06:19:00,41.1,37.8,30.16,North,0,0.0,0.0,88,0.00,,,0.00,Wunderground v.1.13,2013-03-08 12:19:00,
2013-03-08 06:25:00,41.1,37.8,30.17,North,0,0.0,0.0,88,0.00,,,0.00,Wunderground v.1.13,2013-03-08 12:25:00,
2013-03-08 06:31:00,41.2,37.9,30.17,North,0,0.0,0.0,88,0.00,,,0.00,Wunderground v.1.13,2013-03-08 12:31:00,
2013-03-08 06:37:00,41.3,38.0,30.18,North,0,0.0,0.0,88,0.00,,,0.00,Wunderground v.1.13,2013-03-08 12:37:00,
2013-03-08 06:43:00,41.5,38.2,30.18,North,0,0.0,0.0,88,0.00,,,0.00,Wunderground v.1.13,2013-03-08 12:43:00,
2013-03-08 06:49:00,41.6,38.0,30.18,North,0,0.0,0.0,87,0.00,,,0.00,Wunderground v.1.13,2013-03-08 12:49:00,
2013-03-08 06:54:00,41.8,38.2,30.18,North,0,0.0,0.0,87,0.00,,,0.00,Wunderground v.1.13,2013-03-08 12:54:00,
2013-03-08 07:00:00,42.1,38.2,30.18,North,0,0.0,0.0,86,0.00,,,0.00,Wunderground v.1.13,2013-03-08 13:00:00,
2013-03-08 07:05:00,42.2,38.3,30.18,North,0,0.0,0.0,86,0.00,,,0.00,Wunderground v.1.13,2013-03-08 13:05:00,
2013-03-08 07:11:00,42.5,38.6,30.19,North,0,0.0,0.0,86,0.00,,,0.00,Wunderground v.1.13,2013-03-08 13:11:00,
2013-03-08 07:17:00,42.8,38.6,30.19,North,0,0.0,0.0,85,0.00,,,0.00,Wunderground v.1.13,2013-03-08 13:17:00,
2013-03-08 07:22:00,43.1,38.9,30.20,North,0,0.0,1.0,85,0.00,,,0.00,Wunderground v.1.13,2013-03-08 13:22:00,
2013-03-08 07:28:00,43.3,39.1,30.20,North,0,0.0,0.0,85,0.00,,,0.00,Wunderground v.1.13,2013-03-08 13:28:00,
2013-03-08 07:33:00,43.9,39.4,30.20,North,0,0.0,1.0,84,0.00,,,0.00,Wunderground v.1.13,2013-03-08 13:33:00,
2013-03-08 07:39:00,44.3,39.8,30.19,NNE,27,0.0,0.0,84,0.00,,,0.00,Wunderground v.1.13,2013-03-08 13:39:00,
2013-03-08 07:45:00,44.6,40.1,30.19,NNE,27,0.0,0.0,84,0.00,,,0.00,Wunderground v.1.13,2013-03-08 13:45:00,
2013-03-08 07:50:00,44.9,40.7,30.19,NNE,27,0.0,0.0,85,0.00,,,0.00,Wunderground v.1.13,2013-03-08 13:50:00,
2013-03-08 07:56:00,45.4,41.2,30.20,NNE,27,0.0,0.0,85,0.00,,,0.00,Wunderground v.1.13,2013-03-08 13:56:00,
2013-03-08 08:02:00,46.1,41.2,30.20,NNE,24,1.0,3.0,83,0.00,,,0.00,Wunderground v.1.13,2013-03-08 14:02:00,
2013-03-08 08:07:00,46.5,41.3,30.20,NNE,16,2.0,7.0,82,0.00,,,0.00,Wunderground v.1.13,2013-03-08 14:07:00,
2013-03-08 08:12:00,47.0,41.8,30.20,NNE,23,2.0,2.0,82,0.00,,,0.00,Wunderground v.1.13,2013-03-08 14:12:00,
2013-03-08 08:18:00,47.6,42.1,30.20,NNE,28,1.0,2.0,81,0.00,,,0.00,Wunderground v.1.13,2013-03-08 14:18:00,
2013-03-08 08:24:00,48.2,42.3,30.20,NNE,30,1.0,2.0,80,0.00,,,0.00,Wunderground v.1.13,2013-03-08 14:24:00,
2013-03-08 08:29:00,48.6,42.4,30.20,NNE,24,1.0,6.0,79,0.00,,,0.00,Wunderground v.1.13,2013-03-08 14:29:00,
2013-03-08 08:35:00,49.2,42.6,30.20,NE,40,1.0,1.0,78,0.00,,,0.00,Wunderground v.1.13,2013-03-08 14:35:00,
2013-03-08 08:40:00,49.8,43.2,30.20,NE,42,0.0,0.0,78,0.00,,,0.00,Wunderground v.1.13,2013-03-08 14:40:00,
2013-03-08 08:46:00,50.4,43.1,30.20,NNE,28,0.0,1.0,76,0.00,,,0.00,Wunderground v.1.13,2013-03-08 14:46:00,
2013-03-08 08:52:00,51.0,43.0,30.20,NNE,27,1.0,1.0,74,0.00,,,0.00,Wunderground v.1.13,2013-03-08 14:52:00,
2013-03-08 08:57:00,51.4,42.7,30.20,NNE,30,0.0,1.0,72,0.00,,,0.00,Wunderground v.1.13,2013-03-08 14:57:00,
2013-03-08 09:03:00,51.9,42.8,30.20,NNE,30,1.0,5.0,71,0.00,,,0.00,Wunderground v.1.13,2013-03-08 15:03:00,
2013-03-08 09:09:00,52.3,42.8,30.21,NNE,30,1.0,1.0,70,0.00,,,0.00,Wunderground v.1.13,2013-03-08 15:09:00,
2013-03-08 09:15:00,52.9,43.0,30.21,NNE,32,0.0,0.0,69,0.00,,,0.00,Wunderground v.1.13,2013-03-08 15:15:00,
2013-03-08 09:20:00,53.2,42.9,30.21,NE,41,0.0,0.0,68,0.00,,,0.00,Wunderground v.1.13,2013-03-08 15:20:00,
2013-03-08 09:26:00,53.6,42.9,30.21,NE,38,0.0,0.0,67,0.00,,,0.00,Wunderground v.1.13,2013-03-08 15:26:00,
2013-03-08 09:31:00,54.1,43.0,30.21,NE,51,1.0,1.0,66,0.00,,,0.00,Wunderground v.1.13,2013-03-08 15:31:00,
2013-03-08 09:37:00,54.8,43.3,30.20,NE,45,1.0,1.0,65,0.00,,,0.00,Wunderground v.1.13,2013-03-08 15:37:00,
2013-03-08 09:43:00,55.3,42.9,30.20,NNE,31,0.0,0.0,63,0.00,,,0.00,Wunderground v.1.13,2013-03-08 15:43:00,
2013-03-08 09:48:00,55.4,42.2,30.20,NNE,28,1.0,5.0,61,0.00,,,0.00,Wunderground v.1.13,2013-03-08 15:48:00,
2013-03-08 09:54:00,56.0,42.7,30.20,NNE,28,1.0,1.0,61,0.00,,,0.00,Wunderground v.1.13,2013-03-08 15:54:00,
2013-03-08 10:00:00,56.3,42.1,30.20,NE,35,0.0,0.0,59,0.00,,,0.00,Wunderground v.1.13,2013-03-08 16:00:00,
2013-03-08 10:06:00,56.6,42.0,30.20,NNE,21,2.0,2.0,58,0.00,,,0.00,Wunderground v.1.13,2013-03-08 16:06:00,
2013-03-08 10:11:00,57.2,42.1,30.20,NNE,32,2.0,2.0,57,0.00,,,0.00,Wunderground v.1.13,2013-03-08 16:11:00,
2013-03-08 10:17:00,57.5,41.9,30.20,NNE,25,0.0,1.0,56,0.00,,,0.00,Wunderground v.1.13,2013-03-08 16:17:00,
2013-03-08 10:23:00,58.1,42.5,30.19,NNE,25,0.0,0.0,56,0.00,,,0.00,Wunderground v.1.13,2013-03-08 16:23:00,
2013-03-08 10:28:00,58.4,41.3,30.19,NE,48,1.0,1.0,53,0.00,,,0.00,Wunderground v.1.13,2013-03-08 16:28:00,
2013-03-08 10:34:00,58.7,41.6,30.19,NE,48,1.0,3.0,53,0.00,,,0.00,Wunderground v.1.13,2013-03-08 16:34:00,
2013-03-08 10:39:00,58.9,41.3,30.19,NNE,25,1.0,5.0,52,0.00,,,0.00,Wunderground v.1.13,2013-03-08 16:39:00,
2013-03-08 10:45:00,59.3,41.7,30.19,ENE,72,1.0,1.0,52,0.00,,,0.00,Wunderground v.1.13,2013-03-08 16:45:00,
2013-03-08 10:51:00,59.9,41.7,30.18,ENE,61,0.0,0.0,51,0.00,,,0.00,Wunderground v.1.13,2013-03-08 16:51:00,
2013-03-08 10:57:00,60.2,41.0,30.18,ENE,58,0.0,0.0,49,0.00,,,0.00,Wunderground v.1.13,2013-03-08 16:57:00,
2013-03-08 11:02:00,60.7,40.3,30.18,ENE,58,0.0,0.0,47,0.00,,,0.00,Wunderground v.1.13,2013-03-08 17:02:00,
2013-03-08 11:08:00,60.7,40.3,30.18,North,0,2.0,7.0,47,0.00,,,0.00,Wunderground v.1.13,2013-03-08 17:08:00,
2013-03-08 11:14:00,61.0,40.1,30.18,NNE,17,2.0,2.0,46,0.00,,,0.00,Wunderground v.1.13,2013-03-08 17:14:00,
2013-03-08 11:20:00,61.6,40.6,30.18,ENE,72,1.0,1.0,46,0.00,,,0.00,Wunderground v.1.13,2013-03-08 17:20:00,
2013-03-08 11:25:00,62.0,40.4,30.18,NNE,27,1.0,1.0,45,0.00,,,0.00,Wunderground v.1.13,2013-03-08 17:25:00,
2013-03-08 11:31:00,62.1,39.3,30.18,ESE,114,1.0,2.0,43,0.00,,,0.00,Wunderground v.1.13,2013-03-08 17:31:00,
2013-03-08 11:37:00,62.3,39.5,30.18,North,4,1.0,7.0,43,0.00,,,0.00,Wunderground v.1.13,2013-03-08 17:37:00,
2013-03-08 11:42:00,62.3,39.5,30.18,NNE,24,2.0,3.0,43,0.00,,,0.00,Wunderground v.1.13,2013-03-08 17:42:00,
2013-03-08 11:48:00,62.4,39.0,30.18,NE,40,1.0,2.0,42,0.00,,,0.00,Wunderground v.1.13,2013-03-08 17:48:00,
2013-03-08 11:54:00,62.9,38.2,30.17,ENE,66,1.0,8.0,40,0.00,,,0.00,Wunderground v.1.13,2013-03-08 17:54:00,
2013-03-08 12:00:00,63.2,39.1,30.17,NNE,17,1.0,1.0,41,0.00,,,0.00,Wunderground v.1.13,2013-03-08 18:00:00,
2013-03-08 12:05:00,63.5,38.1,30.17,NE,55,0.0,0.0,39,0.00,,,0.00,Wunderground v.1.13,2013-03-08 18:05:00,
2013-03-08 12:11:00,63.9,38.4,30.16,North,6,1.0,3.0,39,0.00,,,0.00,Wunderground v.1.13,2013-03-08 18:11:00,
2013-03-08 12:17:00,63.9,37.8,30.16,East,97,1.0,1.0,38,0.00,,,0.00,Wunderground v.1.13,2013-03-08 18:17:00,
2013-03-08 12:22:00,64.2,37.4,30.15,ENE,61,1.0,1.0,37,0.00,,,0.00,Wunderground v.1.13,2013-03-08 18:22:00,
2013-03-08 12:28:00,64.8,38.6,30.15,NE,56,0.0,0.0,38,0.00,,,0.00,Wunderground v.1.13,2013-03-08 18:28:00,
2013-03-08 12:34:00,65.2,37.6,30.15,NNE,28,1.0,5.0,36,0.00,,,0.00,Wunderground v.1.13,2013-03-08 18:34:00,
2013-03-08 12:39:00,65.3,37.6,30.15,NNE,30,1.0,1.0,36,0.00,,,0.00,Wunderground v.1.13,2013-03-08 18:39:00,
2013-03-08 12:45:00,65.6,35.7,30.15,NNE,28,1.0,1.0,33,0.00,,,0.00,Wunderground v.1.13,2013-03-08 18:45:00,
2013-03-08 12:51:00,65.6,35.7,30.14,ENE,65,2.0,9.0,33,0.00,,,0.00,Wunderground v.1.13,2013-03-08 18:51:00,
2013-03-08 12:56:00,65.6,35.7,30.14,North,1,1.0,1.0,33,0.00,,,0.00,Wunderground v.1.13,2013-03-08 18:56:00,
2013-03-08 13:02:00,66.1,35.4,30.14,ENE,58,1.0,1.0,32,0.00,,,0.00,Wunderground v.1.13,2013-03-08 19:02:00,
2013-03-08 13:08:00,66.6,35.8,30.13,NE,51,1.0,1.0,32,0.00,,,0.00,Wunderground v.1.13,2013-03-08 19:08:00,
2013-03-08 13:13:00,67.1,36.2,30.13,South,185,0.0,1.0,32,0.00,,,0.00,Wunderground v.1.13,2013-03-08 19:13:00,
2013-03-08 13:19:00,67.4,34.9,30.13,ENE,65,0.0,4.0,30,0.00,,,0.00,Wunderground v.1.13,2013-03-08 19:19:00,
2013-03-08 13:25:00,67.6,35.9,30.12,ENE,65,0.0,0.0,31,0.00,,,0.00,Wunderground v.1.13,2013-03-08 19:25:00,
2013-03-08 13:30:00,67.9,36.9,30.12,ENE,65,0.0,0.0,32,0.00,,,0.00,Wunderground v.1.13,2013-03-08 19:30:00,
2013-03-08 13:36:00,68.3,34.8,30.11,NNE,23,0.0,2.0,29,0.00,,,0.00,Wunderground v.1.13,2013-03-08 19:36:00,
2013-03-08 13:42:00,68.3,35.6,30.11,NE,42,1.0,6.0,30,0.00,,,0.00,Wunderground v.1.13,2013-03-08 19:42:00,
2013-03-08 13:47:00,68.1,34.6,30.11,NE,37,0.0,1.0,29,0.00,,,0.00,Wunderground v.1.13,2013-03-08 19:47:00,
2013-03-08 13:53:00,68.6,35.1,30.10,NE,55,1.0,3.0,29,0.00,,,0.00,Wunderground v.1.13,2013-03-08 19:53:00,
2013-03-08 13:59:00,68.9,33.5,30.10,ENE,68,1.0,1.0,27,0.00,,,0.00,Wunderground v.1.13,2013-03-08 19:59:00,
2013-03-08 14:04:00,68.8,34.3,30.10,NE,44,1.0,6.0,28,0.00,,,0.00,Wunderground v.1.13,2013-03-08 20:04:00,
2013-03-08 14:10:00,68.6,34.2,30.10,NE,44,1.0,1.0,28,0.00,,,0.00,Wunderground v.1.13,2013-03-08 20:10:00,
2013-03-08 14:15:00,69.1,34.6,30.10,ENE,66,0.0,3.0,28,0.00,,,0.00,Wunderground v.1.13,2013-03-08 20:15:00,
2013-03-08 14:21:00,69.6,34.1,30.10,ENE,66,0.0,0.0,27,0.00,,,0.00,Wunderground v.1.13,2013-03-08 20:21:00,
2013-03-08 14:27:00,70.3,35.6,30.10,ENE,68,0.0,0.0,28,0.00,,,0.00,Wunderground v.1.13,2013-03-08 20:27:00,
2013-03-08 14:32:00,70.6,35.0,30.10,ENE,69,0.0,0.0,27,0.00,,,0.00,Wunderground v.1.13,2013-03-08 20:32:00,
2013-03-08 14:38:00,70.8,35.1,30.10,SSW,193,0.0,0.0,27,0.00,,,0.00,Wunderground v.1.13,2013-03-08 20:38:00,
2013-03-08 14:44:00,70.8,34.2,30.10,NE,34,0.0,0.0,26,0.00,,,0.00,Wunderground v.1.13,2013-03-08 20:44:00,
2013-03-08 14:50:00,70.9,34.3,30.10,NE,41,0.0,0.0,26,0.00,,,0.00,Wunderground v.1.13,2013-03-08 20:50:00,
2013-03-08 14:55:00,70.8,33.2,30.10,NE,45,0.0,0.0,25,0.00,,,0.00,Wunderground v.1.13,2013-03-08 20:55:00,
2013-03-08 15:01:00,70.9,33.3,30.10,ENE,68,0.0,5.0,25,0.00,,,0.00,Wunderground v.1.13,2013-03-08 21:01:00,
2013-03-08 15:07:00,70.6,34.0,30.10,NNE,21,0.0,0.0,26,0.00,,,0.00,Wunderground v.1.13,2013-03-08 21:07:00,
2013-03-08 15:13:00,71.1,33.5,30.10,NNE,21,0.0,0.0,25,0.00,,,0.00,Wunderground v.1.13,2013-03-08 21:13:00,
2013-03-08 15:18:00,71.3,32.6,30.10,ENE,78,0.0,0.0,24,0.00,,,0.00,Wunderground v.1.13,2013-03-08 21:18:00,
2013-03-08 15:24:00,71.3,33.6,30.09,NE,34,0.0,0.0,25,0.00,,,0.00,Wunderground v.1.13,2013-03-08 21:24:00,
2013-03-08 15:30:00,71.1,34.5,30.09,NE,35,0.0,0.0,26,0.00,,,0.00,Wunderground v.1.13,2013-03-08 21:30:00,
2013-03-08 15:35:00,71.1,33.5,30.09,NE,35,0.0,0.0,25,0.00,,,0.00,Wunderground v.1.13,2013-03-08 21:35:00,
2013-03-08 15:41:00,71.1,34.5,30.09,NE,35,0.0,0.0,26,0.00,,,0.00,Wunderground v.1.13,2013-03-08 21:41:00,
2013-03-08 15:46:00,71.5,34.8,30.09,NE,35,0.0,0.0,26,0.00,,,0.00,Wunderground v.1.13,2013-03-08 21:46:00,
2013-03-08 15:52:00,71.6,36.8,30.09,NE,35,0.0,0.0,28,0.00,,,0.00,Wunderground v.1.13,2013-03-08 21:52:00,
2013-03-08 15:58:00,71.6,36.8,30.09,NE,35,0.0,0.0,28,0.00,,,0.00,Wunderground v.1.13,2013-03-08 21:58:00,
2013-03-08 16:04:00,71.6,36.8,30.09,NE,35,0.0,0.0,28,0.00,,,0.00,Wunderground v.1.13,2013-03-08 22:04:00,
2013-03-08 16:10:00,71.5,36.7,30.08,NE,35,0.0,0.0,28,0.00,,,0.00,Wunderground v.1.13,2013-03-08 22:10:00,
2013-03-08 16:16:00,71.3,36.5,30.08,NE,35,0.0,0.0,28,0.00,,,0.00,Wunderground v.1.13,2013-03-08 22:16:00,
2013-03-08 16:22:00,71.1,36.3,30.08,NE,35,0.0,0.0,28,0.00,,,0.00,Wunderground v.1.13,2013-03-08 22:22:00,
2013-03-08 16:28:00,70.8,37.8,30.08,NE,35,0.0,0.0,30,0.00,,,0.00,Wunderground v.1.13,2013-03-08 22:28:00,
2013-03-08 16:33:00,70.4,36.6,30.08,NE,35,0.0,0.0,29,0.00,,,0.00,Wunderground v.1.13,2013-03-08 22:33:00,
2013-03-08 16:39:00,70.1,38.0,30.08,NE,35,0.0,0.0,31,0.00,,,0.00,Wunderground v.1.13,2013-03-08 22:39:00,
2013-03-08 16:44:00,69.6,37.6,30.08,NE,35,0.0,0.0,31,0.00,,,0.00,Wunderground v.1.13,2013-03-08 22:44:00,
2013-03-08 16:50:00,68.9,40.8,30.08,NE,35,0.0,0.0,36,0.00,,,0.00,Wunderground v.1.13,2013-03-08 22:50:00,
2013-03-08 16:56:00,68.3,43.0,30.09,NE,35,0.0,0.0,40,0.00,,,0.00,Wunderground v.1.13,2013-03-08 22:56:00,
2013-03-08 17:01:00,67.6,42.4,30.09,NE,35,0.0,0.0,40,0.00,,,0.00,Wunderground v.1.13,2013-03-08 23:01:00,
2013-03-08 17:07:00,66.9,42.4,30.09,NE,35,0.0,0.0,41,0.00,,,0.00,Wunderground v.1.13,2013-03-08 23:07:00,
2013-03-08 17:13:00,66.4,42.6,30.09,NE,35,0.0,0.0,42,0.00,,,0.00,Wunderground v.1.13,2013-03-08 23:13:00,
2013-03-08 17:18:00,65.8,42.7,30.09,NE,35,0.0,0.0,43,0.00,,,0.00,Wunderground v.1.13,2013-03-08 23:18:00,
2013-03-08 17:24:00,65.0,43.1,30.09,NE,35,0.0,0.0,45,0.00,,,0.00,Wunderground v.1.13,2013-03-08 23:24:00,
2013-03-08 17:30:00,64.3,43.1,30.09,NE,35,0.0,0.0,46,0.00,,,0.00,Wunderground v.1.13,2013-03-08 23:30:00,
2013-03-08 17:35:00,63.9,43.3,30.09,NE,35,0.0,0.0,47,0.00,,,0.00,Wunderground v.1.13,2013-03-08 23:35:00,
2013-03-08 17:41:00,63.5,43.4,30.10,NE,35,0.0,0.0,48,0.00,,,0.00,Wunderground v.1.13,2013-03-08 23:41:00,
2013-03-08 17:47:00,63.2,43.7,30.10,North,8,0.0,0.0,49,0.00,,,0.00,Wunderground v.1.13,2013-03-08 23:47:00,
2013-03-08 17:52:00,63.1,43.6,30.10,North,8,0.0,0.0,49,0.00,,,0.00,Wunderground v.1.13,2013-03-08 23:52:00,
2013-03-08 17:58:00,62.6,43.7,30.10,North,8,0.0,0.0,50,0.00,,,0.00,Wunderground v.1.13,2013-03-08 23:58:00,
2013-03-08 18:04:00,62.3,43.9,30.10,North,7,0.0,0.0,51,0.00,,,0.00,Wunderground v.1.13,2013-03-09 00:04:00,
2013-03-08 18:09:00,61.8,43.5,30.11,North,0,0.0,0.0,51,0.00,,,0.00,Wunderground v.1.13,2013-03-09 00:09:00,
2013-03-08 18:15:00,61.2,43.4,30.11,North,0,0.0,0.0,52,0.00,,,0.00,Wunderground v.1.13,2013-03-09 00:15:00,
2013-03-08 18:21:00,60.7,43.5,30.11,North,0,0.0,0.0,53,0.00,,,0.00,Wunderground v.1.13,2013-03-09 00:21:00,
2013-03-08 18:26:00,60.4,43.2,30.11,North,0,0.0,0.0,53,0.00,,,0.00,Wunderground v.1.13,2013-03-09 00:26:00,
2013-03-08 18:32:00,60.1,43.9,30.11,North,0,0.0,0.0,55,0.00,,,0.00,Wunderground v.1.13,2013-03-09 00:32:00,
2013-03-08 18:37:00,59.8,43.6,30.11,North,0,0.0,0.0,55,0.00,,,0.00,Wunderground v.1.13,2013-03-09 00:37:00,
2013-03-08 18:43:00,59.5,43.3,30.11,North,0,0.0,0.0,55,0.00,,,0.00,Wunderground v.1.13,2013-03-09 00:43:00,
2013-03-08 18:49:00,59.3,43.6,30.11,North,0,0.0,0.0,56,0.00,,,0.00,Wunderground v.1.13,2013-03-09 00:49:00,
2013-03-08 18:54:00,59.0,43.3,30.11,North,0,0.0,0.0,56,0.00,,,0.00,Wunderground v.1.13,2013-03-09 00:54:00,
2013-03-08 19:00:00,58.7,43.5,30.11,North,0,0.0,0.0,57,0.00,,,0.00,Wunderground v.1.13,2013-03-09 01:00:00,
2013-03-08 19:05:00,58.4,43.7,30.11,North,0,0.0,0.0,58,0.00,,,0.00,Wunderground v.1.13,2013-03-09 01:05:00,
2013-03-08 19:11:00,58.1,43.4,30.11,North,0,0.0,0.0,58,0.00,,,0.00,Wunderground v.1.13,2013-03-09 01:11:00,
2013-03-08 19:17:00,57.6,43.4,30.11,North,0,0.0,0.0,59,0.00,,,0.00,Wunderground v.1.13,2013-03-09 01:17:00,
2013-03-08 19:22:00,57.3,43.5,30.11,North,0,0.0,0.0,60,0.00,,,0.00,Wunderground v.1.13,2013-03-09 01:22:00,
2013-03-08 19:28:00,56.9,43.2,30.11,North,0,0.0,0.0,60,0.00,,,0.00,Wunderground v.1.13,2013-03-09 01:28:00,
2013-03-08 19:34:00,56.6,43.3,30.11,North,0,0.0,0.0,61,0.00,,,0.00,Wunderground v.1.13,2013-03-09 01:34:00,
2013-03-08 19:40:00,56.3,43.4,30.11,North,0,0.0,0.0,62,0.00,,,0.00,Wunderground v.1.13,2013-03-09 01:40:00,
2013-03-08 19:46:00,56.0,43.2,30.11,North,0,0.0,0.0,62,0.00,,,0.00,Wunderground v.1.13,2013-03-09 01:46:00,
2013-03-08 19:52:00,55.9,43.5,30.11,North,0,0.0,0.0,63,0.00,,,0.00,Wunderground v.1.13,2013-03-09 01:52:00,
2013-03-08 19:57:00,55.9,43.9,30.11,North,0,0.0,0.0,64,0.00,,,0.00,Wunderground v.1.13,2013-03-09 01:57:00,
2013-03-08 20:03:00,55.7,43.7,30.11,North,0,0.0,0.0,64,0.00,,,0.00,Wunderground v.1.13,2013-03-09 02:03:00,
2013-03-08 20:09:00,55.4,43.4,30.11,North,0,0.0,0.0,64,0.00,,,0.00,Wunderground v.1.13,2013-03-09 02:09:00,
2013-03-08 20:14:00,55.1,43.5,30.11,North,0,0.0,0.0,65,0.00,,,0.00,Wunderground v.1.13,2013-03-09 02:14:00,
2013-03-08 20:20:00,54.7,43.2,30.11,North,0,0.0,0.0,65,0.00,,,0.00,Wunderground v.1.13,2013-03-09 02:20:00,
2013-03-08 20:26:00,54.4,43.3,30.11,North,0,0.0,0.0,66,0.00,,,0.00,Wunderground v.1.13,2013-03-09 02:26:00,
2013-03-08 20:31:00,54.2,43.1,30.11,North,0,0.0,0.0,66,0.00,,,0.00,Wunderground v.1.13,2013-03-09 02:31:00,
2013-03-08 20:37:00,53.9,43.2,30.11,North,0,0.0,0.0,67,0.00,,,0.00,Wunderground v.1.13,2013-03-09 02:37:00,
2013-03-08 20:42:00,53.8,43.1,30.11,North,0,0.0,0.0,67,0.00,,,0.00,Wunderground v.1.13,2013-03-09 02:42:00,
2013-03-08 20:48:00,53.3,42.6,30.11,North,0,0.0,0.0,67,0.00,,,0.00,Wunderground v.1.13,2013-03-09 02:48:00,
2013-03-08 20:54:00,53.1,42.8,30.10,North,0,0.0,0.0,68,0.00,,,0.00,Wunderground v.1.13,2013-03-09 02:54:00,
2013-03-08 20:59:00,52.9,42.6,30.10,North,0,0.0,0.0,68,0.00,,,0.00,Wunderground v.1.13,2013-03-09 02:59:00,
2013-03-08 21:05:00,52.8,42.9,30.10,North,0,0.0,0.0,69,0.00,,,0.00,Wunderground v.1.13,2013-03-09 03:05:00,
2013-03-08 21:10:00,52.6,43.1,30.10,North,0,0.0,0.0,70,0.00,,,0.00,Wunderground v.1.13,2013-03-09 03:10:00,
2013-03-08 21:16:00,52.5,43.4,30.10,North,0,0.0,0.0,71,0.00,,,0.00,Wunderground v.1.13,2013-03-09 03:16:00,
2013-03-08 21:22:00,52.3,43.2,30.10,North,0,0.0,0.0,71,0.00,,,0.00,Wunderground v.1.13,2013-03-09 03:22:00,
2013-03-08 21:27:00,52.2,43.1,30.10,North,0,0.0,0.0,71,0.00,,,0.00,Wunderground v.1.13,2013-03-09 03:27:00,
2013-03-08 21:33:00,52.0,43.3,30.10,North,0,0.0,0.0,72,0.00,,,0.00,Wunderground v.1.13,2013-03-09 03:33:00,
2013-03-08 21:39:00,51.4,42.7,30.11,North,0,0.0,0.0,72,0.00,,,0.00,Wunderground v.1.13,2013-03-09 03:39:00,
2013-03-08 21:45:00,51.1,42.7,30.11,North,0,0.0,0.0,73,0.00,,,0.00,Wunderground v.1.13,2013-03-09 03:45:00,
2013-03-08 21:50:00,51.0,42.6,30.11,North,0,0.0,0.0,73,0.00,,,0.00,Wunderground v.1.13,2013-03-09 03:50:00,
2013-03-08 21:56:00,50.8,42.8,30.10,North,0,0.0,0.0,74,0.00,,,0.00,Wunderground v.1.13,2013-03-09 03:56:00,
2013-03-08 22:01:00,50.7,42.7,30.10,North,0,0.0,0.0,74,0.00,,,0.00,Wunderground v.1.13,2013-03-09 04:01:00,
2013-03-08 22:07:00,50.7,42.7,30.10,North,0,0.0,0.0,74,0.00,,,0.00,Wunderground v.1.13,2013-03-09 04:07:00,
2013-03-08 22:12:00,50.8,43.5,30.10,North,0,0.0,0.0,76,0.00,,,0.00,Wunderground v.1.13,2013-03-09 04:12:00,
2013-03-08 22:18:00,50.8,43.5,30.10,North,0,0.0,0.0,76,0.00,,,0.00,Wunderground v.1.13,2013-03-09 04:18:00,
2013-03-08 22:24:00,50.7,43.4,30.10,North,0,0.0,0.0,76,0.00,,,0.00,Wunderground v.1.13,2013-03-09 04:24:00,
2013-03-08 22:30:00,50.7,43.8,30.10,North,0,0.0,0.0,77,0.00,,,0.00,Wunderground v.1.13,2013-03-09 04:30:00,
2013-03-08 22:35:00,50.7,43.8,30.10,North,0,0.0,0.0,77,0.00,,,0.00,Wunderground v.1.13,2013-03-09 04:35:00,
2013-03-08 22:41:00,50.7,43.8,30.09,North,0,0.0,0.0,77,0.00,,,0.00,Wunderground v.1.13,2013-03-09 04:41:00,
2013-03-08 22:46:00,50.7,44.1,30.09,North,0,0.0,0.0,78,0.00,,,0.00,Wunderground v.1.13,2013-03-09 04:46:00,
2013-03-08 22:52:00,50.7,44.1,30.09,North,0,0.0,0.0,78,0.00,,,0.00,Wunderground v.1.13,2013-03-09 04:52:00,
2013-03-08 22:57:00,50.7,44.1,30.09,North,0,0.0,0.0,78,0.00,,,0.00,Wunderground v.1.13,2013-03-09 04:57:00,
2013-03-08 23:00:00,50.8,44.5,30.09,North,0,0.0,0.0,79,0.00,,,0.00,Wunderground v.1.13,2013-03-09 05:00:00,
2013-03-08 23:01:00,50.8,44.5,30.09,North,0,0.0,0.0,79,0.00,,,0.00,Wunderground v.1.13,2013-03-09 05:01:00,
2013-03-08 23:03:00,51.1,44.8,30.09,North,0,0.0,0.0,79,0.00,,,0.00,Wunderground v.1.13,2013-03-09 05:03:00,
2013-03-08 23:09:00,51.3,45.0,30.09,North,0,0.0,0.0,79,0.00,,,0.00,Wunderground v.1.13,2013-03-09 05:09:00,
2013-03-08 23:14:00,51.4,45.1,30.09,North,0,0.0,0.0,79,0.00,,,0.00,Wunderground v.1.13,2013-03-09 05:14:00,
2013-03-08 23:20:00,51.4,45.1,30.09,NNW,336,0.0,0.0,79,0.00,,,0.00,Wunderground v.1.13,2013-03-09 05:20:00,
2013-03-08 23:25:00,51.3,44.7,30.10,NNW,336,0.0,0.0,78,0.00,,,0.00,Wunderground v.1.13,2013-03-09 05:25:00,
2013-03-08 23:31:00,51.3,45.0,30.10,NNW,336,0.0,0.0,79,0.00,,,0.00,Wunderground v.1.13,2013-03-09 05:31:00,
2013-03-08 23:36:00,51.1,44.8,30.10,NNW,336,0.0,0.0,79,0.00,,,0.00,Wunderground v.1.13,2013-03-09 05:36:00,
2013-03-08 23:42:00,51.0,44.7,30.10,NNW,336,0.0,0.0,79,0.00,,,0.00,Wunderground v.1.13,2013-03-09 05:42:00,
2013-03-08 23:47:00,51.0,44.7,30.10,NNW,336,0.0,0.0,79,0.00,,,0.00,Wunderground v.1.13,2013-03-09 05:47:00,
2013-03-08 23:53:00,51.0,44.7,30.10,NNW,336,0.0,0.0,79,0.00,,,0.00,Wunderground v.1.13,2013-03-09 05:53:00,
2013-03-08 23:59:00,51.0,44.7,30.10,NNW,336,0.0,0.0,79,0.00,,,0.00,Wunderground v.1.13,2013-03-09 05:59:00,